Stations météo

réclame
Mon MeteoGroup
Hoek van Holland, Pays-Bas (6330): Température de l'air & dewpoint: 19.04.2018 14:00:00 - 25.04.2018 14:00:00 (CEST)Hoek van Holland, Pays-Bas (6330): Température de l'air 5cm: 19.04.2018 14:00:00 - 25.04.2018 14:00:00 (CEST)Hoek van Holland, Pays-Bas (6330): Vitesse du vent & gusts: 19.04.2018 14:00:00 - 25.04.2018 14:00:00 (CEST)Hoek van Holland, Pays-Bas (6330): Direction du vent: 19.04.2018 14:00:00 - 25.04.2018 14:00:00 (CEST)Hoek van Holland, Pays-Bas (6330): reduced air pressure: 19.04.2018 14:00:00 - 25.04.2018 14:00:00 (CEST)Hoek van Holland, Pays-Bas (6330): Quantités de précipitations: 19.04.2018 14:00:00 - 25.04.2018 14:00:00 (CEST)
Date & Time tt [°C] td [°C] tt 5cm [°C] ff [km/h] ff [knt] fx [km/h] fx [knt] dd ppp [hPa] rr [mm]
25.04.2018 14:00:00 13,4 8,1 14,8 32 18 50 27 W 1012,2 0,0
25.04.2018 13:00:00 12,5 8,7 12,3 29 16 43 23 WSW 1012,2 0,0
25.04.2018 12:00:00 11,3 7,1 12,5 29 16 43 23 W 1012,3 0,0
25.04.2018 11:00:00 10,6 7,6 11,2 32 18 40 21 W 1011,5 0,0
25.04.2018 10:00:00 10,0 8,6 9,9 29 16 36 19 W 1010,7 0,0
25.04.2018 09:00:00 9,3 8,2 9,4 32 18 43 23 W 1010,2 0,0
25.04.2018 08:00:00 9,6 8,4 9,7 40 21 47 25 WNW 1009,3 0,0
25.04.2018 07:00:00 9,7 8,8 9,7 32 18 47 25 W 1008,4 0,0
25.04.2018 06:00:00 10,5 9,9 10,6 40 21 54 29 W 1007,3 0,0
25.04.2018 05:00:00 10,8 10,2 10,7 40 21 65 35 WSW 1006,6 0,0
25.04.2018 04:00:00 10,5 10,1 10,5 43 23 65 35 SW 1006,6 0,2
25.04.2018 03:00:00 11,6 10,4 11,7 40 21 68 37 SW 1006,8 0,0
25.04.2018 02:00:00 12,1 10,5 12,1 47 25 65 35 SW 1007,1 0,0
25.04.2018 01:00:00 12,4 10,1 12,4 47 25 68 37 SW 1007,9 0,0
25.04.2018 00:00:00 12,6 10,4 12,5 43 23 68 37 SW 1008,8 0,0
24.04.2018 23:00:00 12,2 10,4 12,2 43 23 68 37 SW 1009,8 0,0
24.04.2018 22:00:00 12,5 10,1 12,3 36 19 47 25 SSW 1010,6 0,0
24.04.2018 21:00:00 11,8 9,6 11,9 36 19 47 25 SW 1011,2 0,0
24.04.2018 20:00:00 12,4 9,9 12,4 25 14 43 23 SW 1012,0 0,0
24.04.2018 19:00:00 12,3 9,6 12,6 25 14 36 19 SW 1012,6 0,0
24.04.2018 18:00:00 12,4 9,4 12,6 22 12 40 21 SW 1013,7 0,0
24.04.2018 17:00:00 13,5 9,1 14,3 22 12 36 19 WSW 1014,3 0,0
24.04.2018 16:00:00 13,6 9,6 14,9 25 14 40 21 WSW 1015,1 0,0
24.04.2018 15:00:00 14,3 9,9 15,1 32 18 40 21 SW 1015,6 0,0
24.04.2018 14:00:00 13,3 9,8 14,6 29 16 47 25 SW 1016,0 0,0
24.04.2018 13:00:00 13,2 9,9 14,5 25 14 43 23 WSW 1016,3 0,0
24.04.2018 12:00:00 13,1 9,8 13,6 29 16 47 25 SW 1016,2 0,0
24.04.2018 11:00:00 11,9 9,7 12,5 29 16 40 21 SW 1015,9 0,0
24.04.2018 10:00:00 11,3 9,8 11,8 29 16 43 23 WSW 1015,8 0,0
24.04.2018 09:00:00 10,2 9,6 10,3 25 14 40 21 SW 1015,1 0,2
24.04.2018 08:00:00 10,4 8,9 10,5 29 16 43 23 SW 1014,9 0,0
24.04.2018 07:00:00 10,1 8,6 10,1 29 16 43 23 SW 1014,9 0,0
24.04.2018 06:00:00 10,2 8,3 10,2 36 19 50 27 SW 1014,5 0,0
24.04.2018 05:00:00 10,3 8,3 10,3 32 18 54 29 WSW 1014,8 0,0
24.04.2018 04:00:00 10,5 8,2 10,5 36 19 58 31 SW 1014,5 0,0
24.04.2018 03:00:00 10,5 8,3 10,3 40 21 54 29 SW 1014,7 0,0
24.04.2018 02:00:00 10,4 8,2 10,0 40 21 54 29 SW 1015,0 0,0
24.04.2018 01:00:00 10,2 7,8 10,0 40 21 61 33 SW 1015,3 0,0
24.04.2018 00:00:00 10,2 7,5 10,1 40 21 54 29 SW 1015,8 0,0
23.04.2018 23:00:00 10,6 7,1 10,4 36 19 58 31 SW 1016,2 0,0
23.04.2018 22:00:00 10,7 5,9 10,3 40 21 61 33 SW 1016,3 0,0
23.04.2018 21:00:00 10,9 6,5 10,8 36 19 54 29 WSW 1016,0 0,0
23.04.2018 20:00:00 11,2 6,9 11,3 25 14 47 25 SW 1016,3 0,0
23.04.2018 19:00:00 12,3 7,5 12,7 32 18 43 23 SW 1016,3 0,0
23.04.2018 18:00:00 13,9 7,9 14,5 22 12 32 18 SW 1016,7 0,0
23.04.2018 17:00:00 14,3 6,4 15,8 25 14 40 21 WSW 1016,9 0,0
23.04.2018 16:00:00 15,1 8,0 16,3 22 12 40 21 WSW 1017,0 0,0
23.04.2018 15:00:00 12,7 8,0 13,7 25 14 36 19 WSW 1017,1 0,0
23.04.2018 14:00:00 12,6 7,8 13,9 25 14 40 21 WSW 1016,7 0,0
23.04.2018 13:00:00 13,6 8,2 15,0 29 16 40 21 W 1016,6 0,0
23.04.2018 12:00:00 13,5 8,1 15,0 29 16 40 21 WSW 1016,2 0,0
23.04.2018 11:00:00 12,4 7,7 13,7 25 14 36 19 WSW 1015,7 0,0
23.04.2018 10:00:00 12,2 8,2 12,6 29 16 40 21 W 1015,1 0,0
23.04.2018 09:00:00 11,2 8,1 11,6 25 14 36 19 W 1014,5 0,0
23.04.2018 08:00:00 10,8 8,3 10,9 25 14 32 18 W 1013,6 0,0
23.04.2018 07:00:00 10,6 8,4 10,4 25 14 36 19 W 1013,2 0,0
23.04.2018 06:00:00 10,6 8,4 10,4 25 14 40 21 W 1012,7 0,0
23.04.2018 05:00:00 10,8 8,5 10,6 32 18 43 23 W 1012,4 0,0
23.04.2018 04:00:00 11,8 8,4 11,7 29 16 43 23 W 1012,0 0,0
23.04.2018 03:00:00 12,0 8,6 11,7 29 16 40 21 W 1011,5 0,0
23.04.2018 02:00:00 12,0 8,9 11,9 25 14 40 21 WSW 1011,3 0,0
23.04.2018 01:00:00 12,3 8,2 12,3 29 16 43 23 SW 1011,0 0,0
23.04.2018 00:00:00 13,1 9,2 13,0 32 18 43 23 SW 1010,4 0,0
22.04.2018 23:00:00 14,7 8,9 14,6 36 19 61 33 SW 1009,8 0,0
22.04.2018 22:00:00 14,9 8,4 14,5 40 21 58 31 SW 1009,7 0,0
22.04.2018 21:00:00 15,7 8,9 15,5 43 23 61 33 SW 1009,2 0,0
22.04.2018 20:00:00 17,3 7,6 17,1 32 18 50 27 WSW 1008,9 0,0
22.04.2018 19:00:00 19,9 7,0 20,1 32 18 54 29 WSW 1009,0 0,0
22.04.2018 18:00:00 21,0 8,9 21,3 29 16 50 27 WSW 1009,2 0,0
22.04.2018 17:00:00 19,2 12,9 20,0 18 10 32 18 W 1009,4 0,0
22.04.2018 16:00:00 20,4 13,1 21,8 22 12 40 21 W 1009,7 0,0
22.04.2018 15:00:00 25,0 12,2 26,4 25 14 36 19 SW 1009,7 0,0
22.04.2018 14:00:00 26,4 12,7 27,3 25 14 36 19 SSW 1009,5 0,0
22.04.2018 13:00:00 24,2 13,4 25,2 22 12 29 16 SE 1009,8 0,0
22.04.2018 12:00:00 20,7 12,5 21,2 14 8 25 14 S 1011,2 0,0
22.04.2018 11:00:00 21,4 12,2 22,4 14 8 22 12 SE 1011,3 0,0
22.04.2018 10:00:00 18,6 11,3 18,4 14 8 25 14 ESE 1011,2 0,0
22.04.2018 09:00:00 16,1 10,4 14,5 22 12 25 14 ESE 1012,0 0,0
22.04.2018 08:00:00 14,9 9,9 14,1 14 8 22 12 SE 1012,9 0,0
22.04.2018 07:00:00 12,2 8,9 11,3 14 8 18 10 SE 1013,5 0,0
22.04.2018 06:00:00 11,9 8,5 11,3 22 12 22 12 ESE 1013,5 0,0
22.04.2018 05:00:00 12,4 8,3 11,6 25 14 29 16 ESE 1014,3 0,0
22.04.2018 04:00:00 13,2 8,4 12,5 25 14 29 16 ESE 1015,1 0,0
22.04.2018 03:00:00 13,7 8,6 13,1 25 14 29 16 ESE 1015,9 0,0
22.04.2018 02:00:00 14,1 9,4 13,4 25 14 29 16 E 1016,4 0,0
22.04.2018 01:00:00 13,9 10,0 13,2 22 12 25 14 E 1017,0 0,0
22.04.2018 00:00:00 14,8 9,5 13,8 18 10 18 10 E 1017,7 0,0
21.04.2018 23:00:00 15,9 8,8 15,1 14 8 18 10 E 1018,0 0,0
21.04.2018 22:00:00 16,9 9,1 15,8 14 8 18 10 E 1018,5 0,0
21.04.2018 21:00:00 18,3 9,5 17,3 14 8 18 10 ENE 1018,5 0,0
21.04.2018 20:00:00 16,6 10,6 15,7 11 6 18 10 ENE 1018,7 0,0
21.04.2018 19:00:00 15,5 9,6 16,3 25 14 29 16 NNE 1019,2 0,0
21.04.2018 18:00:00 17,1 8,7 18,3 18 10 32 18 NNE 1019,7 0,0
21.04.2018 17:00:00 17,9 8,8 19,1 25 14 32 18 NNE 1020,3 0,0
21.04.2018 16:00:00 17,4 9,5 18,6 29 16 32 18 NNE 1021,0 0,0
21.04.2018 15:00:00 16,2 10,4 17,0 14 8 25 14 NNE 1021,8 0,0
21.04.2018 14:00:00 16,2 10,7 17,8 14 8 22 12 N 1022,2 0,0
21.04.2018 13:00:00 17,6 10,9 18,0 18 10 25 14 NNE 1022,5 0,0
21.04.2018 12:00:00 18,4 9,5 17,8 22 12 25 14 NE 1023,1 0,0
21.04.2018 11:00:00 13,7 10,0 15,6 22 12 22 12 NNE 1023,4 0,0
21.04.2018 10:00:00 12,8 10,3 13,0 18 10 18 10 NNE 1023,3 0,0
21.04.2018 09:00:00 13,5 10,5 13,4 7 4 11 6 NE 1023,4 0,0
21.04.2018 08:00:00 9,5 9,2 9,0 11 6 18 10 NE 1023,2 0,0
21.04.2018 07:00:00 8,0 8,0 7,3 14 8 18 10 NNE 1023,0 0,0
21.04.2018 06:00:00 7,9 7,9 7,7 14 8 22 12 NNE 1022,5 0,0
21.04.2018 05:00:00 8,1 8,0 7,8 18 10 22 12 NNE 1022,8 0,0
21.04.2018 04:00:00 8,3 8,1 8,0 22 12 25 14 NNE 1022,8 0,0
21.04.2018 03:00:00 8,3 8,1 8,2 18 10 22 12 N 1023,0 0,0
21.04.2018 02:00:00 8,6 8,2 8,4 18 10 25 14 N 1023,3 0,0
21.04.2018 01:00:00 8,6 8,0 7,4 11 6 14 8 N 1023,0 0,0
21.04.2018 00:00:00 8,8 8,2 8,5 11 6 14 8 NNE 1023,0 0,0
20.04.2018 23:00:00 9,1 8,3 8,9 14 8 18 10 N 1023,1 0,0
20.04.2018 22:00:00 9,1 8,2 9,0 14 8 18 10 N 1023,1 0,0
20.04.2018 21:00:00 9,5 8,3 9,4 22 12 25 14 NNW 1022,9 0,0
20.04.2018 20:00:00 10,5 8,5 10,7 18 10 22 12 WNW 1022,4 0,0
20.04.2018 19:00:00 13,0 9,8 13,6 18 10 22 12 WNW 1022,4 0,0
20.04.2018 18:00:00 14,6 9,7 15,9 4 2 11 6 NW 1022,5 0,0
20.04.2018 17:00:00 15,8 10,4 17,5 14 8 22 12 WNW 1022,8 0,0
20.04.2018 16:00:00 18,9 10,3 20,6 18 10 22 12 W 1022,8 0,0
20.04.2018 15:00:00 20,4 10,2 22,1 11 6 18 10 WSW 1023,0 0,0
20.04.2018 14:00:00 21,2 12,3 21,9 14 8 22 12 WSW 1023,0 0,0
20.04.2018 13:00:00 19,3 11,2 19,4 18 10 25 14 W 1023,1 0,0
20.04.2018 12:00:00 24,0 12,4 24,9 14 8 22 12 W 1022,8 0,0
20.04.2018 11:00:00 22,6 12,3 23,5 11 6 18 10 W 1022,7 0,0
20.04.2018 10:00:00 21,0 11,9 21,6 4 2 11 6 SW 1022,3 0,0
20.04.2018 09:00:00 18,8 11,7 18,8 14 8 22 12 SW 1022,4 0,0
20.04.2018 08:00:00 16,6 11,5 15,7 22 12 29 16 SW 1022,6 0,0
20.04.2018 07:00:00 16,0 10,9 15,1 18 10 22 12 SW 1022,2 0,0
20.04.2018 06:00:00 16,3 10,3 14,5 18 10 22 12 SW 1022,2 0,0
20.04.2018 05:00:00 14,9 9,9 11,7 14 8 18 10 SSW 1022,3 0,0
20.04.2018 04:00:00 15,8 9,2 13,6 22 12 22 12 S 1022,6 0,0
20.04.2018 03:00:00 15,4 8,9 11,4 18 10 22 12 S 1022,8 0,0
20.04.2018 02:00:00 12,9 9,3 10,0 11 6 14 8 SSE 1023,1 0,0
20.04.2018 01:00:00 15,1 8,7 10,8 7 4 14 8 SE 1023,2 0,0
20.04.2018 00:00:00 14,2 9,5 10,9 11 6 14 8 SE 1023,3 0,0
19.04.2018 23:00:00 17,0 9,3 12,3 11 6 18 10 E 1023,6 0,0
19.04.2018 22:00:00 17,7 8,5 13,3 14 8 25 14 ENE 1023,8 0,0
19.04.2018 21:00:00 18,0 8,1 17,1 25 14 29 16 NE 1023,6 0,0
19.04.2018 20:00:00 19,0 8,5 18,4 25 14 29 16 NNE 1023,5 0,0
19.04.2018 19:00:00 18,4 9,5 19,1 22 12 25 14 NNE 1023,8 0,0
19.04.2018 18:00:00 18,8 9,4 19,8 22 12 25 14 N 1024,1 0,0
19.04.2018 17:00:00 20,1 9,5 21,0 22 12 22 12 N 1024,4 0,0
19.04.2018 16:00:00 24,6 9,5 26,9 14 8 18 10 WNW 1024,5 0,0
19.04.2018 15:00:00 27,4 8,1 28,2 18 10 25 14 SSE 1024,9 0,0
19.04.2018 14:00:00 26,8 8,0 27,8 18 10 25 14 SE 1025,2 0,0

tt = Température de l'air
td = dewpoint
tt 5cm = Température de l'air 5cm
ff = Vitesse du vent
fx = gusts
dd = Direction du vent
ppp = reduced air pressure
rr = Quantités de précipitations

stations d'obs. à proximité